Time;durP1;ratioP1;P1;durP2;ratioP2;P2;SDS_P1;SDS_P2;PMS_P1;PMS_P2;Temp;Humidity;BMP_temperature;BMP_pressure;BME280_temperature;BME280_humidity;BME280_pressure;Samples;Min_cycle;Max_cycle;Signal;HPM_P1;HPM_P2
2023/05/25 00:01:23;;;;;;;10.05;5.10;;;;;;;9.68;79.67;102419.16;5104773;28;20056;-72
2023/05/25 00:04:09;;;;;;;11.07;5.00;;;;;;;9.65;79.70;102411.28;5099207;28;20048;-72
2023/05/25 00:06:55;;;;;;;12.65;4.68;;;;;;;9.64;79.56;102407.75;5106946;28;20079;-72
2023/05/25 00:09:43;;;;;;;10.90;4.40;;;;;;;9.62;79.30;102416.53;5093775;28;20056;-72
2023/05/25 00:12:28;;;;;;;10.27;4.70;;;;;;;9.60;79.33;102421.81;5091848;28;20098;-71
2023/05/25 00:15:13;;;;;;;9.82;4.50;;;;;;;9.57;79.47;102413.91;5099026;28;20139;-71
2023/05/25 00:17:59;;;;;;;10.10;4.15;;;;;;;9.57;80.33;102415.66;5091618;28;20056;-71
2023/05/25 00:20:46;;;;;;;11.65;5.00;;;;;;;9.55;81.00;102409.53;5104003;28;20060;-71
2023/05/25 00:23:32;;;;;;;12.80;4.88;;;;;;;9.53;80.81;102417.41;5095265;28;20048;-71
2023/05/25 00:26:18;;;;;;;11.25;5.18;;;;;;;9.51;80.89;102418.31;5106448;28;20052;-71
2023/05/25 00:29:03;;;;;;;12.60;4.97;;;;;;;9.48;81.10;102422.69;5105065;28;20056;-71
2023/05/25 00:31:49;;;;;;;15.02;5.22;;;;;;;9.46;81.17;102416.53;5101172;28;20134;-71
2023/05/25 00:34:36;;;;;;;8.20;4.28;;;;;;;9.45;81.55;102414.81;5091484;27;20048;-71
2023/05/25 00:37:21;;;;;;;8.45;4.50;;;;;;;9.45;81.79;102429.72;5108295;28;20055;-71
2023/05/25 00:40:15;;;;;;;10.25;4.65;;;;;;;9.42;81.80;102419.16;5104404;28;20060;-71
2023/05/25 00:43:01;;;;;;;10.20;4.70;;;;;;;9.40;81.82;102416.56;5107256;28;20059;-72
2023/05/25 00:45:47;;;;;;;9.90;4.32;;;;;;;9.39;82.10;102421.81;5099669;28;20142;-72
2023/05/25 00:48:35;;;;;;;7.55;4.50;;;;;;;9.35;82.21;102417.44;5111861;28;20076;-72
2023/05/25 00:51:25;;;;;;;11.60;4.50;;;;;;;9.32;82.34;102418.31;5099347;28;20040;-72
2023/05/25 00:54:13;;;;;;;11.35;5.00;;;;;;;9.30;82.40;102415.69;5116128;28;20922;-71
2023/05/25 00:57:06;;;;;;;9.63;4.68;;;;;;;9.27;82.48;102417.41;5096961;28;20876;-71
2023/05/25 00:59:54;;;;;;;12.88;4.10;;;;;;;9.26;82.61;102413.06;5080258;28;20052;-71
2023/05/25 01:02:42;;;;;;;10.48;4.68;;;;;;;9.19;82.70;102421.81;5091412;28;20811;-71
2023/05/25 01:05:30;;;;;;;9.18;4.65;;;;;;;9.21;82.98;102427.94;5105755;28;20147;-72
2023/05/25 01:08:20;;;;;;;8.98;4.30;;;;;;;9.22;82.82;102425.31;5106028;28;20044;-72
2023/05/25 01:11:08;;;;;;;11.75;4.78;;;;;;;9.19;82.81;102429.69;5106566;28;20095;-71
2023/05/25 01:13:55;;;;;;;13.05;4.47;;;;;;;9.20;82.99;102420.94;5105852;28;20048;-71
2023/05/25 01:16:42;;;;;;;10.65;4.32;;;;;;;9.23;83.12;102426.22;5101114;28;20056;-71
2023/05/25 01:19:27;;;;;;;14.63;5.13;;;;;;;9.19;82.75;102427.97;5080367;28;20142;-71
2023/05/25 01:22:26;;;;;;;7.85;3.90;;;;;;;9.13;82.72;102430.56;5089494;28;20099;-71
2023/05/25 01:25:21;;;;;;;11.40;4.95;;;;;;;9.09;82.54;102431.47;5102254;28;20060;-71
2023/05/25 01:28:24;;;;;;;13.55;4.97;;;;;;;9.04;82.32;102436.72;5105862;28;20059;-71
2023/05/25 01:31:10;;;;;;;14.38;4.95;;;;;;;8.96;81.82;102439.31;5094296;28;20052;-71
2023/05/25 01:33:56;;;;;;;10.20;4.38;;;;;;;8.85;81.79;102441.91;5082542;28;20095;-71
2023/05/25 01:36:42;;;;;;;13.30;5.07;;;;;;;8.78;81.91;102442.78;5089960;28;20037;-71
2023/05/25 01:39:27;;;;;;;10.32;4.93;;;;;;;8.74;82.32;102443.66;5084244;28;20056;-71
2023/05/25 01:42:12;;;;;;;10.70;4.70;;;;;;;8.76;82.93;102438.41;5105972;28;20044;-72
2023/05/25 01:44:59;;;;;;;11.55;4.25;;;;;;;8.79;83.21;102441.91;5092502;28;20089;-72
2023/05/25 01:48:18;;;;;;;8.48;4.40;;;;;;;8.79;83.34;102444.53;5076358;28;20056;-72
2023/05/25 01:51:18;;;;;;;9.45;4.90;;;;;;;8.70;82.91;102448.00;5090982;28;20052;-73
2023/05/25 01:54:16;;;;;;;11.70;4.90;;;;;;;8.58;82.71;102454.97;5099733;28;20547;-73
2023/05/25 01:57:08;;;;;;;10.35;4.90;;;;;;;8.49;83.50;102461.97;5106600;28;20056;-73
2023/05/25 02:00:01;;;;;;;10.82;4.50;;;;;;;8.49;83.57;102453.22;5090725;28;20052;-73
2023/05/25 02:03:00;;;;;;;12.57;4.95;;;;;;;8.44;83.72;102455.78;5104255;28;20871;-74
2023/05/25 02:05:46;;;;;;;12.05;5.75;;;;;;;8.36;83.79;102463.63;5106392;28;20052;-74
2023/05/25 02:08:32;;;;;;;12.45;5.40;;;;;;;8.34;84.15;102460.09;5093622;28;20134;-72
2023/05/25 02:11:18;;;;;;;13.20;5.80;;;;;;;8.35;84.77;102459.25;5087520;28;20115;-72
2023/05/25 02:14:04;;;;;;;10.85;5.32;;;;;;;8.39;85.49;102454.88;5087072;28;20048;-73
2023/05/25 02:16:49;;;;;;;12.02;5.82;;;;;;;8.36;85.71;102460.09;5088844;28;20055;-73
2023/05/25 02:19:35;;;;;;;11.23;4.93;;;;;;;8.33;85.99;102454.84;5098315;28;20135;-72
2023/05/25 02:22:21;;;;;;;14.45;5.93;;;;;;;8.31;86.23;102449.56;5090032;28;20448;-71
2023/05/25 02:25:11;;;;;;;10.88;5.68;;;;;;;8.29;86.44;102453.94;5094827;28;20051;-71
2023/05/25 02:27:57;;;;;;;11.52;5.28;;;;;;;8.26;86.46;102458.31;5089979;28;20230;-71
2023/05/25 02:30:43;;;;;;;11.27;5.47;;;;;;;8.21;86.58;102453.91;5101208;28;20056;-71
2023/05/25 02:33:29;;;;;;;11.23;5.65;;;;;;;8.23;86.77;102456.53;5086875;28;20150;-70
2023/05/25 02:36:15;;;;;;;13.38;5.93;;;;;;;8.22;86.97;102449.53;5081858;27;20055;-71
2023/05/25 02:39:00;;;;;;;12.15;5.85;;;;;;;8.17;86.98;102451.28;5088375;28;20499;-70
2023/05/25 02:41:46;;;;;;;14.88;6.03;;;;;;;8.09;87.23;102444.19;5105058;28;20139;-71
2023/05/25 02:44:31;;;;;;;9.73;5.13;;;;;;;8.06;87.57;102449.47;5087381;28;20555;-70
2023/05/25 02:47:18;;;;;;;12.13;5.38;;;;;;;8.04;87.68;102445.94;5094635;28;20134;-71
2023/05/25 02:50:04;;;;;;;10.27;6.05;;;;;;;8.01;87.89;102445.91;5104186;28;20063;-71
2023/05/25 02:52:54;;;;;;;10.95;5.68;;;;;;;8.00;87.86;102451.16;5090741;28;20138;-71
2023/05/25 02:55:42;;;;;;;12.32;5.95;;;;;;;8.03;88.38;102452.06;5090523;28;20052;-72
2023/05/25 02:58:33;;;;;;;13.48;5.82;;;;;;;8.02;88.35;102450.28;5073182;28;20513;-71
2023/05/25 03:01:24;;;;;;;12.75;5.90;;;;;;;8.03;88.47;102459.06;5078005;28;20056;-71
2023/05/25 03:04:12;;;;;;;12.30;5.80;;;;;;;8.03;88.64;102465.19;5106617;28;20056;-72
2023/05/25 03:06:58;;;;;;;12.65;6.25;;;;;;;8.02;88.52;102466.06;5092824;28;20052;-72
2023/05/25 03:09:43;;;;;;;12.27;5.90;;;;;;;7.99;88.59;102460.78;5100852;28;20048;-72
2023/05/25 03:12:29;;;;;;;10.82;6.45;;;;;;;7.97;88.78;102467.78;5074152;28;20064;-72
2023/05/25 03:15:14;;;;;;;16.85;6.20;;;;;;;7.97;88.54;102470.41;5097378;28;20048;-72
2023/05/25 03:18:00;;;;;;;17.35;6.35;;;;;;;7.95;88.48;102477.41;5091505;28;20139;-71
2023/05/25 03:20:50;;;;;;;12.90;6.30;;;;;;;7.86;88.24;102475.56;5077101;28;20468;-71
2023/05/25 03:23:35;;;;;;;12.55;6.88;;;;;;;7.81;88.37;102485.19;5104309;28;20056;-71
2023/05/25 03:26:25;;;;;;;16.40;7.70;;;;;;;7.84;89.02;102479.06;5107336;28;20048;-71
2023/05/25 03:29:11;;;;;;;13.75;7.18;;;;;;;7.88;89.35;102480.84;5091513;28;20505;-71
2023/05/25 03:31:56;;;;;;;14.65;7.20;;;;;;;7.86;89.08;102482.59;5089402;28;20056;-71
2023/05/25 03:34:44;;;;;;;15.82;7.20;;;;;;;7.87;89.49;102490.47;5096454;28;20048;-71
2023/05/25 03:37:32;;;;;;;12.93;6.50;;;;;;;7.90;89.25;102500.09;5091009;28;20083;-70
2023/05/25 03:40:18;;;;;;;14.82;7.13;;;;;;;7.92;89.33;102501.00;5105478;27;20052;-74
2023/05/25 03:43:03;;;;;;;16.63;7.63;;;;;;;7.93;89.46;102498.41;5085833;28;20056;-74
2023/05/25 03:45:49;;;;;;;15.90;7.15;;;;;;;7.93;89.36;102503.66;5080927;28;20048;-73
2023/05/25 03:48:34;;;;;;;18.02;7.75;;;;;;;7.94;89.59;102501.91;5073249;28;20061;-74
2023/05/25 03:51:21;;;;;;;15.10;7.38;;;;;;;7.97;89.74;102496.69;5086546;28;20048;-73
2023/05/25 03:54:07;;;;;;;14.15;7.15;;;;;;;8.00;89.84;102503.69;5089658;28;20815;-74
2023/05/25 03:56:52;;;;;;;14.15;7.22;;;;;;;8.08;89.61;102507.25;5093043;28;20052;-72
2023/05/25 03:59:56;;;;;;;13.70;7.22;;;;;;;8.35;88.93;102513.53;5095208;28;20052;-71
2023/05/25 04:02:42;;;;;;;13.57;7.10;;;;;;;8.40;88.57;102517.94;5092227;28;20056;-71
2023/05/25 04:05:27;;;;;;;12.88;6.88;;;;;;;8.39;88.44;102513.56;5104356;28;20056;-71
2023/05/25 04:08:16;;;;;;;13.57;6.95;;;;;;;8.44;88.41;102508.34;5105599;28;20063;-70
2023/05/25 04:11:02;;;;;;;15.07;7.15;;;;;;;8.47;88.20;102518.00;5096478;28;20056;-71
2023/05/25 04:13:47;;;;;;;12.48;6.60;;;;;;;8.52;88.49;102514.56;5087506;28;20103;-72
2023/05/25 04:16:32;;;;;;;13.38;7.28;;;;;;;8.64;88.13;102511.09;5088480;28;20055;-72
2023/05/25 04:19:19;;;;;;;14.43;6.82;;;;;;;8.75;87.79;102515.53;5084738;28;20555;-72
2023/05/25 04:22:05;;;;;;;11.98;6.72;;;;;;;8.78;87.80;102511.16;5104646;28;20052;-72
2023/05/25 04:24:50;;;;;;;12.20;6.65;;;;;;;8.82;87.52;102509.41;5101740;28;20052;-72
2023/05/25 04:27:36;;;;;;;15.07;6.30;;;;;;;8.85;87.41;102506.78;5105572;28;20503;-72
2023/05/25 04:30:24;;;;;;;14.80;6.13;;;;;;;8.91;87.43;102517.31;5086578;28;20052;-71
2023/05/25 04:33:37;;;;;;;12.73;5.80;;;;;;;9.02;87.40;102520.00;5102761;28;20501;-70
2023/05/25 04:36:49;;;;;;;11.07;6.28;;;;;;;9.12;86.85;102520.91;5101469;27;20048;-73
2023/05/25 04:39:35;;;;;;;12.10;5.93;;;;;;;9.18;86.86;102520.94;5099941;28;20056;-72
2023/05/25 04:42:22;;;;;;;11.55;6.25;;;;;;;9.29;86.58;102529.72;5083165;28;20066;-71
2023/05/25 04:45:16;;;;;;;11.15;5.85;;;;;;;9.64;86.17;102528.88;5080459;27;20067;-70
2023/05/25 04:48:02;;;;;;;10.05;5.78;;;;;;;10.91;81.92;102522.50;5083304;28;20476;-70
2023/05/25 04:50:47;;;;;;;12.25;5.75;;;;;;;11.84;78.39;102515.72;5083920;28;20441;-71
2023/05/25 04:53:34;;;;;;;9.50;5.13;;;;;;;11.46;77.47;102518.66;5086172;27;20517;-71
2023/05/25 04:56:24;;;;;;;12.48;5.22;;;;;;;11.13;78.32;102525.91;5091492;28;20518;-71
2023/05/25 04:59:10;;;;;;;11.40;4.97;;;;;;;11.28;78.75;102524.94;5106213;27;20095;-72
2023/05/25 05:01:55;;;;;;;13.25;5.75;;;;;;;11.07;79.00;102525.94;5102939;28;20055;-72
2023/05/25 05:04:41;;;;;;;13.15;5.47;;;;;;;11.04;79.20;102533.84;5102020;28;20052;-72
2023/05/25 05:07:27;;;;;;;10.05;5.20;;;;;;;11.28;78.20;102539.91;5101656;27;20048;-71
2023/05/25 05:10:13;;;;;;;12.43;5.15;;;;;;;12.72;74.07;102535.97;5105820;27;20044;-70
2023/05/25 05:13:03;;;;;;;9.90;5.22;;;;;;;12.95;71.69;102535.69;5099990;27;20052;-71
2023/05/25 05:15:50;;;;;;;9.25;4.78;;;;;;;12.93;71.23;102536.59;5086319;28;20047;-71
2023/05/25 05:18:35;;;;;;;11.63;4.78;;;;;;;12.30;73.30;102536.44;5085772;28;20635;-71
2023/05/25 05:21:20;;;;;;;11.77;5.03;;;;;;;12.20;74.64;102542.72;5089063;27;20141;-71
2023/05/25 05:24:07;;;;;;;10.02;4.90;;;;;;;12.20;75.28;102540.97;5106812;28;20052;-71
2023/05/25 05:26:52;;;;;;;12.25;4.60;;;;;;;12.57;75.80;102542.31;5107461;28;20400;-71
2023/05/25 05:29:52;;;;;;;11.43;4.53;;;;;;;13.94;71.09;102549.22;5105941;28;20095;-71
2023/05/25 05:32:38;;;;;;;11.52;4.75;;;;;;;15.92;65.70;102536.25;5089349;28;20125;-71
2023/05/25 05:35:25;;;;;;;12.18;4.10;;;;;;;18.23;58.98;102539.91;5091478;28;20056;-71
2023/05/25 05:38:18;;;;;;;10.43;4.05;;;;;;;19.92;53.81;102539.59;5107006;28;20051;-72
2023/05/25 05:41:12;;;;;;;8.48;3.13;;;;;;;21.19;49.02;102543.72;5104832;27;20052;-70
2023/05/25 05:44:00;;;;;;;11.02;3.63;;;;;;;22.01;46.21;102548.59;5089486;28;20066;-70
2023/05/25 05:46:45;;;;;;;9.68;3.78;;;;;;;22.59;45.24;102556.31;5090802;28;20052;-71
2023/05/25 05:49:33;;;;;;;8.63;3.17;;;;;;;23.01;43.09;102554.06;5104917;28;20602;-71
2023/05/25 05:52:19;;;;;;;10.40;3.40;;;;;;;23.13;41.48;102547.09;5103817;28;20040;-71
2023/05/25 05:55:05;;;;;;;7.60;3.30;;;;;;;23.45;41.03;102548.00;5093937;28;20056;-71
2023/05/25 05:57:51;;;;;;;7.72;3.17;;;;;;;23.67;40.11;102547.59;5108772;28;20105;-71
2023/05/25 06:00:36;;;;;;;11.00;3.42;;;;;;;23.84;39.75;102546.59;5091960;28;20052;-71
2023/05/25 06:03:26;;;;;;;7.50;3.15;;;;;;;23.87;39.10;102550.91;5082497;28;20677;-71
2023/05/25 06:06:12;;;;;;;8.90;3.38;;;;;;;23.68;38.67;102565.47;5089345;28;20048;-71
2023/05/25 06:08:59;;;;;;;8.68;3.50;;;;;;;21.99;41.37;102566.59;5105725;28;20063;-70
2023/05/25 06:11:46;;;;;;;6.40;2.90;;;;;;;19.11;46.87;102568.72;5109928;27;20051;-71
2023/05/25 06:14:31;;;;;;;6.53;3.15;;;;;;;17.10;52.44;102579.09;5091323;28;20979;-71
2023/05/25 06:17:20;;;;;;;6.20;2.90;;;;;;;15.89;55.74;102576.19;5090883;28;20052;-71
2023/05/25 06:20:06;;;;;;;6.72;2.60;;;;;;;15.09;58.63;102590.41;5109628;28;20056;-71
2023/05/25 06:22:52;;;;;;;7.43;2.78;;;;;;;14.48;61.08;102589.81;5092417;28;20647;-71
2023/05/25 06:25:39;;;;;;;9.80;3.17;;;;;;;14.08;62.53;102600.25;5108335;28;20105;-70
2023/05/25 06:28:24;;;;;;;5.75;2.70;;;;;;;13.80;63.86;102595.41;5109693;28;20048;-71
2023/05/25 06:31:10;;;;;;;8.68;3.17;;;;;;;13.64;64.73;102607.13;5109033;28;20052;-71
2023/05/25 06:33:55;;;;;;;5.07;3.15;;;;;;;13.50;65.34;102599.41;5107814;27;20460;-72
2023/05/25 06:36:41;;;;;;;8.55;2.97;;;;;;;13.43;66.38;102597.75;5109958;27;20064;-71
2023/05/25 06:39:27;;;;;;;6.78;3.05;;;;;;;13.42;65.75;102595.97;5079076;28;20056;-71
2023/05/25 06:42:12;;;;;;;7.75;3.35;;;;;;;13.45;66.04;102607.41;5090120;28;20524;-71
2023/05/25 06:45:09;;;;;;;10.20;3.53;;;;;;;13.41;66.62;102608.38;5096135;27;20059;-71
2023/05/25 06:47:55;;;;;;;9.48;3.50;;;;;;;13.48;66.59;102607.38;5094612;28;20056;-71
2023/05/25 06:50:41;;;;;;;6.82;3.40;;;;;;;13.49;66.74;102611.78;5092617;28;20110;-70
2023/05/25 06:53:26;;;;;;;10.57;3.63;;;;;;;13.56;66.20;102609.91;5107915;27;20060;-70
2023/05/25 06:56:12;;;;;;;9.35;3.55;;;;;;;13.55;66.37;102612.56;5106900;28;20052;-71
2023/05/25 06:58:58;;;;;;;10.00;3.50;;;;;;;13.68;66.67;102618.59;5109006;28;20171;-70
2023/05/25 07:01:46;;;;;;;12.18;3.55;;;;;;;13.80;65.34;102621.03;5109637;28;20048;-70
2023/05/25 07:04:33;;;;;;;9.13;3.47;;;;;;;13.85;65.50;102615.66;5108142;28;20099;-70
2023/05/25 07:07:18;;;;;;;11.82;3.80;;;;;;;13.93;64.56;102609.34;5109788;27;20727;-70
2023/05/25 07:10:04;;;;;;;9.27;3.70;;;;;;;13.94;65.14;102619.03;5108998;28;20052;-70
2023/05/25 07:12:49;;;;;;;9.65;3.40;;;;;;;14.01;64.76;102610.97;5107209;28;20198;-69
2023/05/25 07:15:34;;;;;;;7.68;2.92;;;;;;;14.12;63.97;102617.88;5108487;28;20056;-69
2023/05/25 07:18:20;;;;;;;8.65;3.10;;;;;;;14.14;64.80;102617.84;5109496;27;20064;-70
2023/05/25 07:21:08;;;;;;;9.05;3.00;;;;;;;14.28;64.15;102623.78;5109075;27;20056;-70
2023/05/25 07:23:54;;;;;;;10.52;3.50;;;;;;;14.33;63.94;102621.06;5107996;27;20044;-70
2023/05/25 07:26:39;;;;;;;7.35;3.00;;;;;;;14.46;63.28;102619.06;5107434;28;20048;-70
2023/05/25 07:29:25;;;;;;;11.02;3.35;;;;;;;14.51;63.74;102616.31;5110190;28;20531;-70
2023/05/25 07:32:10;;;;;;;10.50;3.17;;;;;;;14.68;62.67;102616.88;5109779;28;20055;-69
2023/05/25 07:34:56;;;;;;;8.20;3.25;;;;;;;14.77;61.46;102623.81;5109919;28;20059;-70
2023/05/25 07:37:41;;;;;;;9.70;3.35;;;;;;;14.70;61.49;102616.88;5109607;28;20048;-70
2023/05/25 07:40:27;;;;;;;10.10;3.60;;;;;;;14.68;62.19;102632.81;5108761;28;20492;-70
2023/05/25 07:43:12;;;;;;;8.65;3.17;;;;;;;14.77;62.18;102626.47;5098785;28;20056;-70
2023/05/25 07:45:59;;;;;;;11.32;3.97;;;;;;;14.93;61.65;102628.81;5087960;28;20151;-70
2023/05/25 07:48:45;;;;;;;12.27;3.90;;;;;;;14.97;61.50;102623.41;5089080;28;20465;-72
2023/05/25 07:51:31;;;;;;;11.32;3.72;;;;;;;15.21;61.39;102621.16;5088263;28;20049;-69
2023/05/25 07:54:17;;;;;;;11.10;3.60;;;;;;;15.44;61.28;102630.41;5087652;28;20424;-70
2023/05/25 07:57:02;;;;;;;10.35;3.42;;;;;;;15.77;59.90;102631.41;5102920;28;20111;-71
2023/05/25 07:59:48;;;;;;;9.65;3.55;;;;;;;15.96;59.15;102637.19;5107975;28;20131;-69
2023/05/25 08:02:33;;;;;;;14.45;3.92;;;;;;;16.05;58.67;102649.38;5107940;28;20863;-70
2023/05/25 08:05:18;;;;;;;10.70;3.20;;;;;;;16.15;57.85;102636.72;5108566;28;20134;-70
2023/05/25 08:08:04;;;;;;;9.02;2.85;;;;;;;16.38;57.08;102636.13;5108128;28;20056;-69
2023/05/25 08:10:50;;;;;;;14.02;3.47;;;;;;;16.59;56.34;102637.31;5107802;28;20460;-70
2023/05/25 08:13:35;;;;;;;9.60;3.28;;;;;;;16.75;55.78;102636.91;5107969;28;20060;-70
2023/05/25 08:16:20;;;;;;;10.80;3.47;;;;;;;16.97;55.89;102642.53;5108907;28;20052;-70
2023/05/25 08:19:06;;;;;;;12.65;4.03;;;;;;;17.11;55.13;102639.47;5108741;28;20510;-70
2023/05/25 08:21:52;;;;;;;8.93;3.20;;;;;;;17.31;55.85;102635.34;5109323;28;20056;-70
2023/05/25 08:24:38;;;;;;;7.70;3.42;;;;;;;17.32;54.04;102645.97;5107861;28;20907;-71
2023/05/25 08:27:24;;;;;;;7.88;2.80;;;;;;;17.29;52.87;102646.06;5106031;28;20058;-70
2023/05/25 08:30:10;;;;;;;9.75;3.00;;;;;;;17.24;53.28;102645.34;5107429;28;20587;-71
2023/05/25 08:32:56;;;;;;;9.80;3.15;;;;;;;17.39;53.21;102634.19;5107845;28;20052;-71
2023/05/25 08:35:41;;;;;;;9.80;3.20;;;;;;;17.80;53.31;102648.94;5108023;28;20491;-71
2023/05/25 08:38:27;;;;;;;12.50;3.72;;;;;;;18.10;53.39;102654.22;5108168;28;20147;-71
2023/05/25 08:41:13;;;;;;;10.63;3.30;;;;;;;18.18;52.33;102652.16;5107404;28;20064;-71
2023/05/25 08:44:05;;;;;;;8.98;2.97;;;;;;;18.35;52.48;102650.72;5090604;28;20059;-71
2023/05/25 08:46:51;;;;;;;10.40;2.80;;;;;;;18.30;52.29;102659.75;5087577;28;20052;-71
2023/05/25 08:49:38;;;;;;;9.25;3.47;;;;;;;18.21;51.79;102659.22;5088407;28;20593;-71
2023/05/25 08:52:32;;;;;;;9.23;3.72;;;;;;;17.79;53.13;102657.84;5087729;28;20479;-71
2023/05/25 08:55:21;;;;;;;11.98;3.97;;;;;;;17.51;53.24;102664.06;5090987;28;20059;-70
2023/05/25 08:58:19;;;;;;;7.38;2.97;;;;;;;17.27;53.91;102663.88;5096413;28;20616;-71
2023/05/25 09:01:08;;;;;;;12.32;3.90;;;;;;;17.33;54.94;102668.16;5087576;28;20053;-71
2023/05/25 09:03:56;;;;;;;10.82;3.90;;;;;;;17.14;55.70;102668.69;5102934;28;20139;-70
2023/05/25 09:06:44;;;;;;;9.43;3.50;;;;;;;16.92;55.74;102674.59;5108213;28;20143;-70
2023/05/25 09:09:51;;;;;;;7.93;2.63;;;;;;;16.80;55.45;102674.06;5106683;28;20048;-70
2023/05/25 09:12:38;;;;;;;12.05;3.50;;;;;;;16.54;55.77;102675.63;5109029;28;20056;-70
2023/05/25 09:15:23;;;;;;;14.07;3.45;;;;;;;16.23;56.75;102682.63;5107856;28;20048;-70
2023/05/25 09:18:09;;;;;;;10.23;3.90;;;;;;;16.08;56.64;102677.69;5108277;28;20511;-70
2023/05/25 09:20:57;;;;;;;14.82;3.35;;;;;;;15.90;57.97;102679.00;5107344;28;20052;-71
2023/05/25 09:23:44;;;;;;;8.00;3.28;;;;;;;15.80;58.11;102680.97;5107656;28;20138;-70
2023/05/25 09:26:29;;;;;;;8.95;3.22;;;;;;;15.77;58.44;102683.72;5105977;28;20052;-70
2023/05/25 09:29:15;;;;;;;7.72;2.75;;;;;;;15.72;57.86;102680.28;5104732;28;20060;-70
2023/05/25 09:32:04;;;;;;;9.15;2.72;;;;;;;15.66;58.08;102691.91;5108068;28;20055;-70
2023/05/25 09:34:50;;;;;;;12.13;3.15;;;;;;;15.60;58.14;102684.94;5107373;28;20044;-70
2023/05/25 09:37:36;;;;;;;9.52;3.00;;;;;;;15.68;58.66;102687.44;5107157;28;20545;-70
2023/05/25 09:40:21;;;;;;;6.93;2.92;;;;;;;15.69;58.77;102686.53;5107516;28;20090;-71
2023/05/25 09:43:07;;;;;;;7.50;2.97;;;;;;;15.74;59.04;102689.09;5106674;28;20570;-70
2023/05/25 09:45:53;;;;;;;8.32;2.92;;;;;;;15.79;58.74;102692.50;5107959;28;20052;-71
2023/05/25 09:48:38;;;;;;;13.30;3.20;;;;;;;15.88;59.15;102686.16;5107364;28;20056;-70
2023/05/25 09:51:25;;;;;;;9.63;2.90;;;;;;;16.14;58.00;102686.38;5107360;28;20500;-71
2023/05/25 09:54:11;;;;;;;8.95;3.50;;;;;;;16.34;58.39;102687.69;5107203;28;20130;-71
2023/05/25 09:56:56;;;;;;;10.88;3.10;;;;;;;16.72;56.35;102688.47;5102035;28;20483;-70
2023/05/25 09:59:44;;;;;;;8.98;2.85;;;;;;;16.88;55.54;102680.06;5087064;28;20056;-71
2023/05/25 10:02:29;;;;;;;8.43;2.85;;;;;;;16.98;54.36;102688.72;5086594;28;20099;-70
2023/05/25 10:05:16;;;;;;;8.95;3.10;;;;;;;17.08;54.08;102692.88;5086240;28;20060;-70
2023/05/25 10:08:03;;;;;;;9.73;2.92;;;;;;;16.83;54.66;102690.84;5088120;28;20233;-70
2023/05/25 10:10:49;;;;;;;7.63;3.47;;;;;;;16.68;55.53;102689.47;5099145;27;20552;-71
2023/05/25 10:13:35;;;;;;;9.85;3.67;;;;;;;16.41;56.88;102694.63;5107657;27;20143;-71
2023/05/25 10:16:28;;;;;;;12.05;3.72;;;;;;;16.35;56.60;102697.41;5108854;28;20047;-70
2023/05/25 10:19:28;;;;;;;9.45;3.50;;;;;;;16.17;56.91;102698.75;5105163;27;20109;-71
2023/05/25 10:22:35;;;;;;;13.43;3.90;;;;;;;16.24;57.59;102702.13;5112289;27;20044;-71
2023/05/25 10:25:45;;;;;;;11.18;4.20;;;;;;;16.36;57.12;102698.31;5114903;28;20052;-72
2023/05/25 10:28:38;;;;;;;11.10;4.15;;;;;;;16.40;57.90;102692.88;5106527;28;20521;-70
2023/05/25 10:31:26;;;;;;;11.70;4.18;;;;;;;16.74;57.08;102697.28;5110692;28;20490;-71
2023/05/25 10:34:13;;;;;;;13.20;4.43;;;;;;;16.83;56.73;102697.97;5090232;28;20052;-70
2023/05/25 10:37:03;;;;;;;15.25;3.85;;;;;;;16.86;57.25;102695.19;5090764;28;20578;-70
2023/05/25 10:39:51;;;;;;;9.85;3.92;;;;;;;17.05;55.68;102695.63;5108655;28;20052;-71
2023/05/25 10:42:37;;;;;;;9.80;3.90;;;;;;;17.13;55.43;102696.25;5105704;28;20052;-71
2023/05/25 10:45:23;;;;;;;10.95;3.88;;;;;;;17.18;55.30;102697.03;5092380;28;20052;-70
2023/05/25 10:48:09;;;;;;;13.05;4.00;;;;;;;17.26;55.41;102693.25;5110158;28;20503;-71
2023/05/25 10:50:55;;;;;;;12.38;4.22;;;;;;;17.58;53.26;102686.94;5093402;28;20048;-70
2023/05/25 10:53:46;;;;;;;8.40;3.58;;;;;;;17.77;52.05;102683.69;5099217;28;20656;-70
2023/05/25 10:56:32;;;;;;;9.90;3.85;;;;;;;18.16;52.80;102680.72;5105310;28;20583;-70
2023/05/25 10:59:27;;;;;;;11.57;4.05;;;;;;;18.69;50.57;102674.44;5108765;28;20130;-71
2023/05/25 11:02:14;;;;;;;11.20;3.65;;;;;;;18.46;51.21;102685.94;5109184;28;20844;-71
2023/05/25 11:05:24;;;;;;;8.13;3.38;;;;;;;18.37;51.09;102681.78;5105339;28;20135;-71
2023/05/25 11:08:11;;;;;;;9.07;3.22;;;;;;;18.29;50.03;102683.84;5107706;27;20052;-70
2023/05/25 11:10:57;;;;;;;6.85;3.20;;;;;;;18.13;50.13;102684.34;5108291;28;20056;-70
2023/05/25 11:13:46;;;;;;;11.60;3.97;;;;;;;17.92;50.34;102683.22;5106606;28;20565;-70
2023/05/25 11:16:34;;;;;;;8.55;3.35;;;;;;;17.97;49.73;102683.09;5108205;28;20056;-70
2023/05/25 11:19:21;;;;;;;9.07;3.65;;;;;;;18.37;49.59;102667.53;5109091;27;20052;-70
2023/05/25 11:22:14;;;;;;;9.20;3.40;;;;;;;18.58;49.88;102676.63;5102809;28;20065;-71
2023/05/25 11:25:02;;;;;;;9.35;3.22;;;;;;;18.55;49.62;102676.72;5104174;28;20059;-70
2023/05/25 11:27:49;;;;;;;10.65;3.50;;;;;;;18.35;49.99;102674.75;5108357;28;20085;-70
2023/05/25 11:30:37;;;;;;;7.88;3.50;;;;;;;18.68;47.50;102667.34;5097443;28;21054;-70
2023/05/25 11:33:22;;;;;;;7.88;3.40;;;;;;;18.83;47.78;102665.94;5109796;28;20056;-71
2023/05/25 11:36:08;;;;;;;8.00;2.97;;;;;;;19.14;48.37;102654.13;5108132;28;20915;-70
2023/05/25 11:38:54;;;;;;;9.90;3.42;;;;;;;19.52;46.69;102651.78;5108345;28;20052;-70
2023/05/25 11:41:55;;;;;;;11.55;3.95;;;;;;;19.59;46.03;102654.19;5108823;28;22431;-70
2023/05/25 11:44:42;;;;;;;8.10;3.38;;;;;;;19.78;45.39;102646.31;5105493;28;20048;-70
2023/05/25 11:47:28;;;;;;;11.43;3.50;;;;;;;20.19;45.88;102638.41;5108871;28;20056;-71
2023/05/25 11:50:16;;;;;;;9.02;3.70;;;;;;;20.30;44.80;102638.81;5107812;28;20150;-71
2023/05/25 11:53:05;;;;;;;10.52;3.47;;;;;;;20.30;43.02;102637.91;5101834;28;20507;-70
2023/05/25 11:55:51;;;;;;;10.02;3.30;;;;;;;19.99;43.90;102636.56;5099601;28;20135;-71
2023/05/25 11:58:52;;;;;;;12.48;3.00;;;;;;;20.01;43.94;102627.53;5106210;28;20052;-71
2023/05/25 12:01:37;;;;;;;8.13;3.58;;;;;;;19.73;44.29;102621.56;5108715;28;20052;-70
2023/05/25 12:04:22;;;;;;;9.20;3.60;;;;;;;19.57;44.53;102630.19;5108187;28;20142;-71
2023/05/25 12:07:08;;;;;;;7.72;3.53;;;;;;;19.39;44.57;102629.13;5106853;28;20052;-71
2023/05/25 12:10:08;;;;;;;7.80;3.15;;;;;;;19.33;45.16;102632.03;5106709;28;20487;-71
2023/05/25 12:12:57;;;;;;;9.95;3.40;;;;;;;19.01;45.96;102629.69;5104245;28;20806;-71
2023/05/25 12:15:43;;;;;;;8.10;3.58;;;;;;;18.90;46.35;102627.38;5107596;28;20060;-71
2023/05/25 12:18:29;;;;;;;9.45;3.45;;;;;;;18.83;46.32;102631.19;5108377;28;20044;-71
2023/05/25 12:21:15;;;;;;;6.60;3.53;;;;;;;18.69;46.21;102629.03;5105828;27;20048;-71
2023/05/25 12:24:01;;;;;;;7.68;3.05;;;;;;;18.62;45.95;102632.84;5104008;27;20048;-71
2023/05/25 12:27:00;;;;;;;9.30;3.38;;;;;;;18.64;45.62;102625.66;5094257;27;20048;-71
2023/05/25 12:29:47;;;;;;;6.13;3.40;;;;;;;18.58;46.54;102623.22;5103232;28;20643;-72
2023/05/25 12:32:32;;;;;;;7.10;3.10;;;;;;;18.60;47.19;102622.22;5104961;27;20546;-72
2023/05/25 12:35:18;;;;;;;8.52;3.28;;;;;;;18.63;46.91;102622.13;5106763;28;20052;-71
2023/05/25 12:38:16;;;;;;;9.77;2.97;;;;;;;18.58;47.21;102632.09;5102761;28;20056;-71
2023/05/25 12:41:06;;;;;;;4.55;2.83;;;;;;;18.56;47.15;102628.63;5106486;28;20043;-72
2023/05/25 12:43:53;;;;;;;8.73;3.00;;;;;;;18.55;47.15;102621.53;5104587;28;20048;-70
2023/05/25 12:46:38;;;;;;;5.65;2.70;;;;;;;18.55;47.56;102624.19;5107018;28;20705;-71
2023/05/25 12:49:31;;;;;;;10.45;3.25;;;;;;;18.66;46.98;102617.59;5105514;28;20935;-71
2023/05/25 12:52:41;;;;;;;5.78;2.80;;;;;;;18.78;46.14;102633.16;5104762;28;20505;-71
2023/05/25 12:55:32;;;;;;;6.10;2.60;;;;;;;18.94;45.80;102628.16;5097119;28;20496;-70
2023/05/25 12:58:27;;;;;;;9.55;2.80;;;;;;;18.98;45.54;102626.22;5105509;28;20060;-71
2023/05/25 13:01:12;;;;;;;5.82;2.38;;;;;;;19.02;44.59;102623.41;5106228;28;20138;-71